sensor_id;sensor_type;location;lat;lon;timestamp;P1;durP1;ratioP1;P2;durP2;ratioP2
6452;SDS011;3259;51.080;13.712;2022-08-11T00:00:31;7.45;;;2.17;;
6452;SDS011;3259;51.080;13.712;2022-08-11T00:03:22;2.03;;;1.90;;
6452;SDS011;3259;51.080;13.712;2022-08-11T00:06:31;3.30;;;2.45;;
6452;SDS011;3259;51.080;13.712;2022-08-11T00:09:23;2.00;;;1.58;;
6452;SDS011;3259;51.080;13.712;2022-08-11T00:12:25;2.58;;;2.03;;
6452;SDS011;3259;51.080;13.712;2022-08-11T00:15:14;6.00;;;2.38;;
6452;SDS011;3259;51.080;13.712;2022-08-11T00:18:03;2.30;;;2.10;;
6452;SDS011;3259;51.080;13.712;2022-08-11T00:20:52;3.20;;;1.80;;
6452;SDS011;3259;51.080;13.712;2022-08-11T00:23:52;5.10;;;2.08;;
6452;SDS011;3259;51.080;13.712;2022-08-11T00:26:45;6.72;;;2.00;;
6452;SDS011;3259;51.080;13.712;2022-08-11T00:29:34;3.78;;;2.03;;
6452;SDS011;3259;51.080;13.712;2022-08-11T00:32:38;2.70;;;2.00;;
6452;SDS011;3259;51.080;13.712;2022-08-11T00:35:29;1.85;;;1.70;;
6452;SDS011;3259;51.080;13.712;2022-08-11T00:38:39;1.80;;;1.70;;
6452;SDS011;3259;51.080;13.712;2022-08-11T00:41:33;2.35;;;1.88;;
6452;SDS011;3259;51.080;13.712;2022-08-11T00:44:27;3.67;;;1.90;;
6452;SDS011;3259;51.080;13.712;2022-08-11T00:47:23;3.45;;;1.85;;
6452;SDS011;3259;51.080;13.712;2022-08-11T00:50:16;2.28;;;1.63;;
6452;SDS011;3259;51.080;13.712;2022-08-11T00:53:22;4.05;;;1.70;;
6452;SDS011;3259;51.080;13.712;2022-08-11T00:56:22;2.75;;;2.35;;
6452;SDS011;3259;51.080;13.712;2022-08-11T01:03:09;4.38;;;1.90;;
6452;SDS011;3259;51.080;13.712;2022-08-11T01:06:12;2.40;;;2.15;;
6452;SDS011;3259;51.080;13.712;2022-08-11T01:09:20;3.65;;;1.75;;
6452;SDS011;3259;51.080;13.712;2022-08-11T01:18:54;7.80;;;2.22;;
6452;SDS011;3259;51.080;13.712;2022-08-11T01:22:11;2.92;;;2.22;;
6452;SDS011;3259;51.080;13.712;2022-08-11T01:28:56;2.72;;;1.60;;
6452;SDS011;3259;51.080;13.712;2022-08-11T01:38:45;2.92;;;1.85;;
6452;SDS011;3259;51.080;13.712;2022-08-11T01:42:00;2.65;;;2.30;;
6452;SDS011;3259;51.080;13.712;2022-08-11T01:45:24;5.03;;;1.75;;
6452;SDS011;3259;51.080;13.712;2022-08-11T01:48:18;2.17;;;1.98;;
6452;SDS011;3259;51.080;13.712;2022-08-11T01:51:26;3.35;;;1.98;;
6452;SDS011;3259;51.080;13.712;2022-08-11T01:54:23;2.60;;;1.80;;
6452;SDS011;3259;51.080;13.712;2022-08-11T01:57:20;2.95;;;2.20;;
6452;SDS011;3259;51.080;13.712;2022-08-11T02:00:17;3.85;;;1.77;;
6452;SDS011;3259;51.080;13.712;2022-08-11T02:03:08;8.00;;;1.73;;
6452;SDS011;3259;51.080;13.712;2022-08-11T02:06:02;2.13;;;1.90;;
6452;SDS011;3259;51.080;13.712;2022-08-11T02:09:16;3.67;;;1.98;;
6452;SDS011;3259;51.080;13.712;2022-08-11T02:12:09;4.80;;;1.73;;
6452;SDS011;3259;51.080;13.712;2022-08-11T02:15:13;1.92;;;1.83;;
6452;SDS011;3259;51.080;13.712;2022-08-11T02:18:04;1.88;;;1.77;;
6452;SDS011;3259;51.080;13.712;2022-08-11T02:20:57;2.35;;;2.10;;
6452;SDS011;3259;51.080;13.712;2022-08-11T02:24:13;3.25;;;2.15;;
6452;SDS011;3259;51.080;13.712;2022-08-11T02:27:06;2.20;;;1.95;;
6452;SDS011;3259;51.080;13.712;2022-08-11T02:29:57;5.07;;;1.95;;
6452;SDS011;3259;51.080;13.712;2022-08-11T02:32:57;6.10;;;2.72;;
6452;SDS011;3259;51.080;13.712;2022-08-11T02:36:06;4.25;;;2.22;;
6452;SDS011;3259;51.080;13.712;2022-08-11T02:39:01;1.77;;;1.67;;
6452;SDS011;3259;51.080;13.712;2022-08-11T02:41:55;4.93;;;1.88;;
6452;SDS011;3259;51.080;13.712;2022-08-11T02:45:30;4.65;;;1.80;;
6452;SDS011;3259;51.080;13.712;2022-08-11T02:48:30;1.92;;;1.80;;
6452;SDS011;3259;51.080;13.712;2022-08-11T02:51:56;4.97;;;1.77;;
6452;SDS011;3259;51.080;13.712;2022-08-11T02:54:54;2.42;;;2.13;;
6452;SDS011;3259;51.080;13.712;2022-08-11T02:57:52;1.85;;;1.70;;
6452;SDS011;3259;51.080;13.712;2022-08-11T03:00:45;4.30;;;2.65;;
6452;SDS011;3259;51.080;13.712;2022-08-11T03:03:39;2.90;;;2.08;;
6452;SDS011;3259;51.080;13.712;2022-08-11T03:06:36;4.25;;;2.08;;
6452;SDS011;3259;51.080;13.712;2022-08-11T03:09:28;2.40;;;2.20;;
6452;SDS011;3259;51.080;13.712;2022-08-11T03:12:31;1.77;;;1.77;;
6452;SDS011;3259;51.080;13.712;2022-08-11T03:15:44;6.82;;;2.05;;
6452;SDS011;3259;51.080;13.712;2022-08-11T03:18:55;2.05;;;1.80;;
6452;SDS011;3259;51.080;13.712;2022-08-11T03:21:53;2.88;;;2.13;;
6452;SDS011;3259;51.080;13.712;2022-08-11T03:24:56;2.00;;;1.90;;
6452;SDS011;3259;51.080;13.712;2022-08-11T03:27:49;3.42;;;2.17;;
6452;SDS011;3259;51.080;13.712;2022-08-11T03:30:42;5.20;;;2.00;;
6452;SDS011;3259;51.080;13.712;2022-08-11T03:33:37;4.10;;;2.22;;
6452;SDS011;3259;51.080;13.712;2022-08-11T03:37:05;5.20;;;2.20;;
6452;SDS011;3259;51.080;13.712;2022-08-11T03:40:34;3.45;;;1.83;;
6452;SDS011;3259;51.080;13.712;2022-08-11T03:43:52;3.72;;;2.20;;
6452;SDS011;3259;51.080;13.712;2022-08-11T03:46:52;3.30;;;2.10;;
6452;SDS011;3259;51.080;13.712;2022-08-11T03:49:52;4.00;;;2.17;;
6452;SDS011;3259;51.080;13.712;2022-08-11T03:52:50;3.05;;;2.63;;
6452;SDS011;3259;51.080;13.712;2022-08-11T03:59:10;3.00;;;2.33;;
6452;SDS011;3259;51.080;13.712;2022-08-11T04:02:16;5.75;;;2.60;;
6452;SDS011;3259;51.080;13.712;2022-08-11T04:12:17;3.92;;;2.20;;
6452;SDS011;3259;51.080;13.712;2022-08-11T04:15:26;3.33;;;2.05;;
6452;SDS011;3259;51.080;13.712;2022-08-11T04:19:11;3.50;;;2.47;;
6452;SDS011;3259;51.080;13.712;2022-08-11T04:25:55;2.42;;;2.22;;
6452;SDS011;3259;51.080;13.712;2022-08-11T04:29:13;3.90;;;2.85;;
6452;SDS011;3259;51.080;13.712;2022-08-11T04:32:38;2.10;;;2.00;;
6452;SDS011;3259;51.080;13.712;2022-08-11T04:35:41;4.57;;;2.45;;
6452;SDS011;3259;51.080;13.712;2022-08-11T04:38:42;2.60;;;2.30;;
6452;SDS011;3259;51.080;13.712;2022-08-11T04:49:12;4.63;;;2.65;;
6452;SDS011;3259;51.080;13.712;2022-08-11T04:52:36;2.85;;;2.53;;
6452;SDS011;3259;51.080;13.712;2022-08-11T04:56:01;3.15;;;2.20;;
6452;SDS011;3259;51.080;13.712;2022-08-11T04:59:25;3.13;;;2.08;;
6452;SDS011;3259;51.080;13.712;2022-08-11T05:06:32;3.65;;;2.10;;
6452;SDS011;3259;51.080;13.712;2022-08-11T05:09:39;8.95;;;2.13;;
6452;SDS011;3259;51.080;13.712;2022-08-11T05:12:41;5.70;;;1.95;;
6452;SDS011;3259;51.080;13.712;2022-08-11T05:15:33;4.45;;;2.47;;
6452;SDS011;3259;51.080;13.712;2022-08-11T05:18:49;2.28;;;1.85;;
6452;SDS011;3259;51.080;13.712;2022-08-11T05:21:56;3.30;;;2.00;;
6452;SDS011;3259;51.080;13.712;2022-08-11T05:25:06;3.83;;;1.58;;
6452;SDS011;3259;51.080;13.712;2022-08-11T05:28:34;1.70;;;1.60;;
6452;SDS011;3259;51.080;13.712;2022-08-11T05:31:45;3.83;;;1.40;;
6452;SDS011;3259;51.080;13.712;2022-08-11T05:34:55;1.95;;;1.55;;
6452;SDS011;3259;51.080;13.712;2022-08-11T05:37:45;5.25;;;2.15;;
6452;SDS011;3259;51.080;13.712;2022-08-11T05:40:53;2.10;;;1.92;;
6452;SDS011;3259;51.080;13.712;2022-08-11T05:44:02;1.90;;;1.63;;
6452;SDS011;3259;51.080;13.712;2022-08-11T05:47:09;3.78;;;2.15;;
6452;SDS011;3259;51.080;13.712;2022-08-11T05:50:15;2.70;;;1.20;;
6452;SDS011;3259;51.080;13.712;2022-08-11T05:53:23;3.53;;;1.73;;
6452;SDS011;3259;51.080;13.712;2022-08-11T05:56:33;1.90;;;1.80;;
6452;SDS011;3259;51.080;13.712;2022-08-11T05:59:29;4.85;;;2.05;;
6452;SDS011;3259;51.080;13.712;2022-08-11T06:02:18;3.33;;;1.83;;
6452;SDS011;3259;51.080;13.712;2022-08-11T06:05:07;5.57;;;1.92;;
6452;SDS011;3259;51.080;13.712;2022-08-11T06:07:57;1.80;;;1.70;;
6452;SDS011;3259;51.080;13.712;2022-08-11T06:10:45;3.38;;;1.80;;
6452;SDS011;3259;51.080;13.712;2022-08-11T06:13:35;2.35;;;2.15;;
6452;SDS011;3259;51.080;13.712;2022-08-11T06:16:31;4.22;;;1.90;;
6452;SDS011;3259;51.080;13.712;2022-08-11T06:19:19;1.92;;;1.80;;
6452;SDS011;3259;51.080;13.712;2022-08-11T06:22:10;2.72;;;1.88;;
6452;SDS011;3259;51.080;13.712;2022-08-11T06:25:00;6.28;;;2.40;;
6452;SDS011;3259;51.080;13.712;2022-08-11T06:27:53;4.57;;;1.70;;
6452;SDS011;3259;51.080;13.712;2022-08-11T06:30:44;7.18;;;1.95;;
6452;SDS011;3259;51.080;13.712;2022-08-11T06:33:35;5.30;;;1.85;;
6452;SDS011;3259;51.080;13.712;2022-08-11T06:36:30;3.50;;;1.63;;
6452;SDS011;3259;51.080;13.712;2022-08-11T06:39:20;2.13;;;1.67;;
6452;SDS011;3259;51.080;13.712;2022-08-11T06:42:12;1.40;;;1.30;;
6452;SDS011;3259;51.080;13.712;2022-08-11T06:45:06;2.13;;;2.03;;
6452;SDS011;3259;51.080;13.712;2022-08-11T06:48:03;2.40;;;1.50;;
6452;SDS011;3259;51.080;13.712;2022-08-11T06:50:54;2.10;;;1.92;;
6452;SDS011;3259;51.080;13.712;2022-08-11T06:53:59;2.03;;;1.45;;
6452;SDS011;3259;51.080;13.712;2022-08-11T06:56:51;2.20;;;1.73;;
6452;SDS011;3259;51.080;13.712;2022-08-11T07:00:16;1.67;;;1.58;;
6452;SDS011;3259;51.080;13.712;2022-08-11T07:03:20;2.38;;;1.55;;
6452;SDS011;3259;51.080;13.712;2022-08-11T07:06:14;1.50;;;1.40;;
6452;SDS011;3259;51.080;13.712;2022-08-11T07:09:18;2.67;;;1.85;;
6452;SDS011;3259;51.080;13.712;2022-08-11T07:12:36;5.35;;;1.45;;
6452;SDS011;3259;51.080;13.712;2022-08-11T07:15:44;2.28;;;1.48;;
6452;SDS011;3259;51.080;13.712;2022-08-11T07:18:58;1.52;;;1.27;;
6452;SDS011;3259;51.080;13.712;2022-08-11T07:22:06;4.28;;;1.85;;
6452;SDS011;3259;51.080;13.712;2022-08-11T07:25:15;2.30;;;1.60;;
6452;SDS011;3259;51.080;13.712;2022-08-11T07:28:23;1.83;;;1.40;;
6452;SDS011;3259;51.080;13.712;2022-08-11T07:31:31;1.92;;;1.65;;
6452;SDS011;3259;51.080;13.712;2022-08-11T07:34:24;2.58;;;1.48;;
6452;SDS011;3259;51.080;13.712;2022-08-11T07:37:16;4.43;;;1.75;;
6452;SDS011;3259;51.080;13.712;2022-08-11T07:40:06;3.10;;;1.70;;
6452;SDS011;3259;51.080;13.712;2022-08-11T07:42:55;1.48;;;1.38;;
6452;SDS011;3259;51.080;13.712;2022-08-11T07:45:45;1.17;;;1.17;;
6452;SDS011;3259;51.080;13.712;2022-08-11T07:48:51;4.50;;;1.38;;
6452;SDS011;3259;51.080;13.712;2022-08-11T07:51:59;3.80;;;1.95;;
6452;SDS011;3259;51.080;13.712;2022-08-11T07:55:07;7.63;;;1.73;;
6452;SDS011;3259;51.080;13.712;2022-08-11T07:58:00;1.40;;;1.20;;
6452;SDS011;3259;51.080;13.712;2022-08-11T08:01:06;1.60;;;1.50;;
6452;SDS011;3259;51.080;13.712;2022-08-11T08:04:13;1.88;;;1.52;;
6452;SDS011;3259;51.080;13.712;2022-08-11T08:07:22;2.08;;;1.40;;
6452;SDS011;3259;51.080;13.712;2022-08-11T08:10:29;3.42;;;1.20;;
6452;SDS011;3259;51.080;13.712;2022-08-11T08:13:36;3.38;;;1.50;;
6452;SDS011;3259;51.080;13.712;2022-08-11T08:16:42;2.45;;;1.42;;
6452;SDS011;3259;51.080;13.712;2022-08-11T08:19:48;4.00;;;1.33;;
6452;SDS011;3259;51.080;13.712;2022-08-11T08:22:39;3.10;;;1.48;;
6452;SDS011;3259;51.080;13.712;2022-08-11T08:25:34;1.83;;;1.55;;
6452;SDS011;3259;51.080;13.712;2022-08-11T08:28:25;2.38;;;1.50;;
6452;SDS011;3259;51.080;13.712;2022-08-11T08:31:18;6.13;;;1.45;;
6452;SDS011;3259;51.080;13.712;2022-08-11T08:34:05;4.30;;;1.20;;
6452;SDS011;3259;51.080;13.712;2022-08-11T08:36:54;4.22;;;1.02;;
6452;SDS011;3259;51.080;13.712;2022-08-11T08:39:44;2.42;;;1.58;;
6452;SDS011;3259;51.080;13.712;2022-08-11T08:42:36;2.30;;;1.23;;
6452;SDS011;3259;51.080;13.712;2022-08-11T08:45:31;2.28;;;1.67;;
6452;SDS011;3259;51.080;13.712;2022-08-11T08:48:23;1.85;;;1.70;;
6452;SDS011;3259;51.080;13.712;2022-08-11T08:51:13;3.92;;;1.25;;
6452;SDS011;3259;51.080;13.712;2022-08-11T08:54:50;1.52;;;1.42;;
6452;SDS011;3259;51.080;13.712;2022-08-11T08:57:41;1.85;;;1.40;;
6452;SDS011;3259;51.080;13.712;2022-08-11T09:00:36;1.65;;;1.17;;
6452;SDS011;3259;51.080;13.712;2022-08-11T09:03:27;1.80;;;1.25;;
6452;SDS011;3259;51.080;13.712;2022-08-11T09:06:36;1.52;;;1.02;;
6452;SDS011;3259;51.080;13.712;2022-08-11T09:09:26;4.40;;;1.52;;
6452;SDS011;3259;51.080;13.712;2022-08-11T09:12:17;5.63;;;1.33;;
6452;SDS011;3259;51.080;13.712;2022-08-11T09:15:24;3.78;;;1.35;;
6452;SDS011;3259;51.080;13.712;2022-08-11T09:18:13;4.85;;;1.13;;
6452;SDS011;3259;51.080;13.712;2022-08-11T09:21:04;4.63;;;1.17;;
6452;SDS011;3259;51.080;13.712;2022-08-11T09:23:54;2.20;;;1.17;;
6452;SDS011;3259;51.080;13.712;2022-08-11T09:27:11;1.25;;;0.98;;
6452;SDS011;3259;51.080;13.712;2022-08-11T09:30:02;1.40;;;1.10;;
6452;SDS011;3259;51.080;13.712;2022-08-11T09:32:52;4.75;;;0.80;;
6452;SDS011;3259;51.080;13.712;2022-08-11T09:35:44;1.00;;;1.00;;
6452;SDS011;3259;51.080;13.712;2022-08-11T09:38:33;2.42;;;1.50;;
6452;SDS011;3259;51.080;13.712;2022-08-11T09:41:39;2.90;;;0.98;;
6452;SDS011;3259;51.080;13.712;2022-08-11T09:44:47;1.83;;;1.15;;
6452;SDS011;3259;51.080;13.712;2022-08-11T09:47:37;3.80;;;1.48;;
6452;SDS011;3259;51.080;13.712;2022-08-11T09:50:26;1.52;;;1.10;;
6452;SDS011;3259;51.080;13.712;2022-08-11T09:53:17;3.40;;;1.00;;
6452;SDS011;3259;51.080;13.712;2022-08-11T09:56:26;2.85;;;1.20;;
6452;SDS011;3259;51.080;13.712;2022-08-11T09:59:34;3.55;;;1.30;;
6452;SDS011;3259;51.080;13.712;2022-08-11T10:02:22;1.83;;;1.00;;
6452;SDS011;3259;51.080;13.712;2022-08-11T10:05:16;2.05;;;1.27;;
6452;SDS011;3259;51.080;13.712;2022-08-11T10:08:25;2.47;;;0.95;;
6452;SDS011;3259;51.080;13.712;2022-08-11T10:11:15;4.95;;;1.23;;
6452;SDS011;3259;51.080;13.712;2022-08-11T10:14:07;2.92;;;1.60;;
6452;SDS011;3259;51.080;13.712;2022-08-11T10:17:20;2.90;;;1.10;;
6452;SDS011;3259;51.080;13.712;2022-08-11T10:20:10;1.23;;;0.90;;
6452;SDS011;3259;51.080;13.712;2022-08-11T10:23:00;1.13;;;1.10;;
6452;SDS011;3259;51.080;13.712;2022-08-11T10:26:07;1.38;;;1.17;;
6452;SDS011;3259;51.080;13.712;2022-08-11T10:29:17;3.92;;;1.00;;
6452;SDS011;3259;51.080;13.712;2022-08-11T10:32:36;5.40;;;1.00;;
6452;SDS011;3259;51.080;13.712;2022-08-11T10:35:45;2.13;;;1.30;;
6452;SDS011;3259;51.080;13.712;2022-08-11T10:38:35;3.47;;;1.60;;
6452;SDS011;3259;51.080;13.712;2022-08-11T10:41:24;1.40;;;1.10;;
6452;SDS011;3259;51.080;13.712;2022-08-11T10:44:52;1.27;;;0.98;;
6452;SDS011;3259;51.080;13.712;2022-08-11T10:47:41;2.08;;;1.00;;
6452;SDS011;3259;51.080;13.712;2022-08-11T10:50:35;0.80;;;0.80;;
6452;SDS011;3259;51.080;13.712;2022-08-11T10:53:44;2.30;;;1.65;;
6452;SDS011;3259;51.080;13.712;2022-08-11T10:56:51;2.22;;;1.23;;
6452;SDS011;3259;51.080;13.712;2022-08-11T10:59:58;1.70;;;1.08;;
6452;SDS011;3259;51.080;13.712;2022-08-11T11:02:46;3.38;;;1.02;;
6452;SDS011;3259;51.080;13.712;2022-08-11T11:05:56;0.73;;;0.73;;
6452;SDS011;3259;51.080;13.712;2022-08-11T11:09:13;2.08;;;1.13;;
6452;SDS011;3259;51.080;13.712;2022-08-11T11:12:06;1.02;;;0.85;;
6452;SDS011;3259;51.080;13.712;2022-08-11T11:15:15;1.50;;;1.08;;
6452;SDS011;3259;51.080;13.712;2022-08-11T11:18:24;2.35;;;1.08;;
6452;SDS011;3259;51.080;13.712;2022-08-11T11:21:14;1.23;;;0.80;;
6452;SDS011;3259;51.080;13.712;2022-08-11T11:24:08;3.25;;;0.80;;
6452;SDS011;3259;51.080;13.712;2022-08-11T11:27:04;2.95;;;0.70;;
6452;SDS011;3259;51.080;13.712;2022-08-11T11:30:00;1.40;;;0.85;;
6452;SDS011;3259;51.080;13.712;2022-08-11T11:32:55;1.85;;;1.10;;
6452;SDS011;3259;51.080;13.712;2022-08-11T11:35:48;6.18;;;0.82;;
6452;SDS011;3259;51.080;13.712;2022-08-11T11:38:45;1.33;;;1.13;;
6452;SDS011;3259;51.080;13.712;2022-08-11T11:41:35;1.40;;;0.68;;
6452;SDS011;3259;51.080;13.712;2022-08-11T11:44:24;0.95;;;0.80;;
6452;SDS011;3259;51.080;13.712;2022-08-11T11:47:13;0.73;;;0.70;;
6452;SDS011;3259;51.080;13.712;2022-08-11T11:50:07;0.65;;;0.60;;
6452;SDS011;3259;51.080;13.712;2022-08-11T11:52:57;1.95;;;0.75;;
6452;SDS011;3259;51.080;13.712;2022-08-11T11:55:47;2.80;;;0.85;;
6452;SDS011;3259;51.080;13.712;2022-08-11T11:58:37;2.22;;;0.55;;
6452;SDS011;3259;51.080;13.712;2022-08-11T12:01:44;0.63;;;0.47;;
6452;SDS011;3259;51.080;13.712;2022-08-11T12:04:39;0.60;;;0.60;;
6452;SDS011;3259;51.080;13.712;2022-08-11T12:07:28;3.10;;;0.70;;
6452;SDS011;3259;51.080;13.712;2022-08-11T12:10:56;2.90;;;0.80;;
6452;SDS011;3259;51.080;13.712;2022-08-11T12:14:02;1.00;;;0.50;;
6452;SDS011;3259;51.080;13.712;2022-08-11T12:16:56;0.73;;;0.52;;
6452;SDS011;3259;51.080;13.712;2022-08-11T12:19:45;1.50;;;0.55;;
6452;SDS011;3259;51.080;13.712;2022-08-11T12:22:34;3.92;;;0.60;;
6452;SDS011;3259;51.080;13.712;2022-08-11T12:25:37;3.08;;;0.70;;
6452;SDS011;3259;51.080;13.712;2022-08-11T12:29:05;0.60;;;0.60;;
6452;SDS011;3259;51.080;13.712;2022-08-11T12:31:54;3.42;;;0.60;;
6452;SDS011;3259;51.080;13.712;2022-08-11T12:34:44;1.98;;;0.50;;
6452;SDS011;3259;51.080;13.712;2022-08-11T12:37:34;0.40;;;0.40;;
6452;SDS011;3259;51.080;13.712;2022-08-11T12:40:25;0.60;;;0.50;;
6452;SDS011;3259;51.080;13.712;2022-08-11T12:43:51;8.55;;;0.73;;
6452;SDS011;3259;51.080;13.712;2022-08-11T12:47:01;1.17;;;0.50;;
6452;SDS011;3259;51.080;13.712;2022-08-11T12:49:50;0.75;;;0.40;;
6452;SDS011;3259;51.080;13.712;2022-08-11T12:53:12;1.20;;;0.43;;
6452;SDS011;3259;51.080;13.712;2022-08-11T12:56:04;4.40;;;0.50;;
6452;SDS011;3259;51.080;13.712;2022-08-11T12:59:11;2.50;;;0.55;;
6452;SDS011;3259;51.080;13.712;2022-08-11T13:02:20;2.33;;;0.52;;
6452;SDS011;3259;51.080;13.712;2022-08-11T13:05:30;1.92;;;0.80;;
6452;SDS011;3259;51.080;13.712;2022-08-11T13:08:31;1.60;;;0.52;;
6452;SDS011;3259;51.080;13.712;2022-08-11T13:11:21;2.50;;;0.52;;
6452;SDS011;3259;51.080;13.712;2022-08-11T13:14:42;0.82;;;0.60;;
6452;SDS011;3259;51.080;13.712;2022-08-11T13:17:33;1.90;;;0.45;;
6452;SDS011;3259;51.080;13.712;2022-08-11T13:20:29;0.40;;;0.40;;
6452;SDS011;3259;51.080;13.712;2022-08-11T13:23:18;0.65;;;0.57;;
6452;SDS011;3259;51.080;13.712;2022-08-11T13:26:07;2.22;;;0.73;;
6452;SDS011;3259;51.080;13.712;2022-08-11T13:28:57;1.60;;;0.40;;
6452;SDS011;3259;51.080;13.712;2022-08-11T13:31:46;5.25;;;0.85;;
6452;SDS011;3259;51.080;13.712;2022-08-11T13:34:36;2.42;;;0.82;;
6452;SDS011;3259;51.080;13.712;2022-08-11T13:37:27;5.03;;;0.77;;
6452;SDS011;3259;51.080;13.712;2022-08-11T13:40:36;4.60;;;0.85;;
6452;SDS011;3259;51.080;13.712;2022-08-11T13:43:41;3.83;;;0.50;;
6452;SDS011;3259;51.080;13.712;2022-08-11T13:46:30;1.13;;;0.52;;
6452;SDS011;3259;51.080;13.712;2022-08-11T13:49:20;3.72;;;0.73;;
6452;SDS011;3259;51.080;13.712;2022-08-11T13:52:12;3.70;;;0.85;;
6452;SDS011;3259;51.080;13.712;2022-08-11T13:55:03;1.63;;;0.80;;
6452;SDS011;3259;51.080;13.712;2022-08-11T13:57:53;4.22;;;0.88;;
6452;SDS011;3259;51.080;13.712;2022-08-11T14:01:02;0.70;;;0.52;;
6452;SDS011;3259;51.080;13.712;2022-08-11T14:04:15;0.45;;;0.45;;
6452;SDS011;3259;51.080;13.712;2022-08-11T14:07:19;0.73;;;0.60;;
6452;SDS011;3259;51.080;13.712;2022-08-11T14:10:09;0.90;;;0.73;;
6452;SDS011;3259;51.080;13.712;2022-08-11T14:13:11;1.75;;;0.70;;
6452;SDS011;3259;51.080;13.712;2022-08-11T14:16:29;2.65;;;1.40;;
6452;SDS011;3259;51.080;13.712;2022-08-11T14:19:20;1.25;;;1.15;;
6452;SDS011;3259;51.080;13.712;2022-08-11T14:22:10;2.97;;;0.95;;
6452;SDS011;3259;51.080;13.712;2022-08-11T14:25:02;1.40;;;1.05;;
6452;SDS011;3259;51.080;13.712;2022-08-11T14:27:51;3.50;;;0.90;;
6452;SDS011;3259;51.080;13.712;2022-08-11T14:31:02;2.70;;;1.00;;
6452;SDS011;3259;51.080;13.712;2022-08-11T14:33:52;1.63;;;1.05;;
6452;SDS011;3259;51.080;13.712;2022-08-11T14:36:48;2.85;;;1.02;;
6452;SDS011;3259;51.080;13.712;2022-08-11T14:39:40;10.63;;;1.20;;
6452;SDS011;3259;51.080;13.712;2022-08-11T14:42:31;1.27;;;0.90;;
6452;SDS011;3259;51.080;13.712;2022-08-11T14:45:38;2.10;;;0.60;;
6452;SDS011;3259;51.080;13.712;2022-08-11T14:48:53;1.42;;;0.70;;
6452;SDS011;3259;51.080;13.712;2022-08-11T14:51:42;0.80;;;0.80;;
6452;SDS011;3259;51.080;13.712;2022-08-11T14:54:32;3.17;;;1.50;;
6452;SDS011;3259;51.080;13.712;2022-08-11T14:57:41;1.00;;;1.00;;
6452;SDS011;3259;51.080;13.712;2022-08-11T15:00:42;2.40;;;0.88;;
6452;SDS011;3259;51.080;13.712;2022-08-11T15:03:31;1.20;;;0.50;;
6452;SDS011;3259;51.080;13.712;2022-08-11T15:06:19;0.95;;;0.95;;
6452;SDS011;3259;51.080;13.712;2022-08-11T15:09:08;1.38;;;0.80;;
6452;SDS011;3259;51.080;13.712;2022-08-11T15:11:56;1.98;;;0.80;;
6452;SDS011;3259;51.080;13.712;2022-08-11T15:15:16;1.90;;;0.95;;
6452;SDS011;3259;51.080;13.712;2022-08-11T15:18:24;2.72;;;0.73;;
6452;SDS011;3259;51.080;13.712;2022-08-11T15:21:13;2.20;;;0.60;;
6452;SDS011;3259;51.080;13.712;2022-08-11T15:24:20;0.73;;;0.73;;
6452;SDS011;3259;51.080;13.712;2022-08-11T15:27:18;2.13;;;1.05;;
6452;SDS011;3259;51.080;13.712;2022-08-11T15:30:37;1.77;;;0.90;;
6452;SDS011;3259;51.080;13.712;2022-08-11T15:33:44;4.35;;;0.85;;
6452;SDS011;3259;51.080;13.712;2022-08-11T15:36:54;2.08;;;0.70;;
6452;SDS011;3259;51.080;13.712;2022-08-11T15:40:05;3.03;;;1.17;;
6452;SDS011;3259;51.080;13.712;2022-08-11T15:43:20;1.73;;;0.90;;
6452;SDS011;3259;51.080;13.712;2022-08-11T15:46:30;2.90;;;0.75;;
6452;SDS011;3259;51.080;13.712;2022-08-11T15:49:21;0.60;;;0.60;;
6452;SDS011;3259;51.080;13.712;2022-08-11T15:52:32;1.70;;;1.08;;
6452;SDS011;3259;51.080;13.712;2022-08-11T15:55:23;3.67;;;0.70;;
6452;SDS011;3259;51.080;13.712;2022-08-11T15:58:12;7.80;;;1.00;;
6452;SDS011;3259;51.080;13.712;2022-08-11T16:01:19;2.88;;;0.60;;
6452;SDS011;3259;51.080;13.712;2022-08-11T16:04:27;0.70;;;0.70;;
6452;SDS011;3259;51.080;13.712;2022-08-11T16:07:18;7.72;;;1.00;;
6452;SDS011;3259;51.080;13.712;2022-08-11T16:10:13;1.15;;;0.77;;
6452;SDS011;3259;51.080;13.712;2022-08-11T16:13:07;1.90;;;0.90;;
6452;SDS011;3259;51.080;13.712;2022-08-11T16:16:14;1.48;;;0.52;;
6452;SDS011;3259;51.080;13.712;2022-08-11T16:19:04;4.32;;;0.98;;
6452;SDS011;3259;51.080;13.712;2022-08-11T16:21:56;3.60;;;0.88;;
6452;SDS011;3259;51.080;13.712;2022-08-11T16:24:45;2.13;;;0.68;;
6452;SDS011;3259;51.080;13.712;2022-08-11T16:27:55;4.88;;;1.08;;
6452;SDS011;3259;51.080;13.712;2022-08-11T16:30:45;3.97;;;1.10;;
6452;SDS011;3259;51.080;13.712;2022-08-11T16:33:34;1.85;;;0.80;;
6452;SDS011;3259;51.080;13.712;2022-08-11T16:36:37;4.55;;;1.00;;
6452;SDS011;3259;51.080;13.712;2022-08-11T16:39:44;2.40;;;1.05;;
6452;SDS011;3259;51.080;13.712;2022-08-11T16:42:36;3.33;;;0.90;;
6452;SDS011;3259;51.080;13.712;2022-08-11T16:45:57;0.82;;;0.82;;
6452;SDS011;3259;51.080;13.712;2022-08-11T16:49:19;2.47;;;1.02;;
6452;SDS011;3259;51.080;13.712;2022-08-11T16:52:10;1.10;;;1.00;;
6452;SDS011;3259;51.080;13.712;2022-08-11T16:55:00;2.58;;;1.00;;
6452;SDS011;3259;51.080;13.712;2022-08-11T16:57:49;1.25;;;0.90;;
6452;SDS011;3259;51.080;13.712;2022-08-11T17:00:56;6.68;;;1.52;;
6452;SDS011;3259;51.080;13.712;2022-08-11T17:03:46;3.25;;;1.08;;
6452;SDS011;3259;51.080;13.712;2022-08-11T17:06:57;4.05;;;1.33;;
6452;SDS011;3259;51.080;13.712;2022-08-11T17:10:26;1.25;;;1.10;;
6452;SDS011;3259;51.080;13.712;2022-08-11T17:13:41;4.07;;;1.17;;
6452;SDS011;3259;51.080;13.712;2022-08-11T17:16:33;3.88;;;1.23;;
6452;SDS011;3259;51.080;13.712;2022-08-11T17:19:24;2.95;;;1.35;;
6452;SDS011;3259;51.080;13.712;2022-08-11T17:22:34;1.05;;;0.90;;
6452;SDS011;3259;51.080;13.712;2022-08-11T17:25:46;2.08;;;1.00;;
6452;SDS011;3259;51.080;13.712;2022-08-11T17:28:51;3.67;;;1.38;;
6452;SDS011;3259;51.080;13.712;2022-08-11T17:31:43;1.10;;;1.00;;
6452;SDS011;3259;51.080;13.712;2022-08-11T17:35:02;2.45;;;0.80;;
6452;SDS011;3259;51.080;13.712;2022-08-11T17:38:11;5.00;;;1.10;;
6452;SDS011;3259;51.080;13.712;2022-08-11T17:41:03;1.02;;;1.00;;
6452;SDS011;3259;51.080;13.712;2022-08-11T17:44:10;2.97;;;0.77;;
6452;SDS011;3259;51.080;13.712;2022-08-11T17:47:18;2.40;;;1.10;;
6452;SDS011;3259;51.080;13.712;2022-08-11T17:50:24;3.20;;;1.15;;
6452;SDS011;3259;51.080;13.712;2022-08-11T17:53:13;4.03;;;1.45;;
6452;SDS011;3259;51.080;13.712;2022-08-11T17:56:46;3.75;;;1.10;;
6452;SDS011;3259;51.080;13.712;2022-08-11T18:00:06;1.90;;;1.23;;
6452;SDS011;3259;51.080;13.712;2022-08-11T18:02:56;2.47;;;1.60;;
6452;SDS011;3259;51.080;13.712;2022-08-11T18:06:05;0.80;;;0.77;;
6452;SDS011;3259;51.080;13.712;2022-08-11T18:08:59;1.55;;;0.85;;
6452;SDS011;3259;51.080;13.712;2022-08-11T18:12:07;1.02;;;1.02;;
6452;SDS011;3259;51.080;13.712;2022-08-11T18:15:14;1.20;;;1.05;;
6452;SDS011;3259;51.080;13.712;2022-08-11T18:18:21;1.23;;;1.00;;
6452;SDS011;3259;51.080;13.712;2022-08-11T18:21:27;1.73;;;0.82;;
6452;SDS011;3259;51.080;13.712;2022-08-11T18:24:56;2.15;;;1.00;;
6452;SDS011;3259;51.080;13.712;2022-08-11T18:28:05;5.50;;;1.02;;
6452;SDS011;3259;51.080;13.712;2022-08-11T18:31:14;2.15;;;0.77;;
6452;SDS011;3259;51.080;13.712;2022-08-11T18:34:23;0.95;;;0.82;;
6452;SDS011;3259;51.080;13.712;2022-08-11T18:37:34;1.63;;;0.93;;
6452;SDS011;3259;51.080;13.712;2022-08-11T18:40:42;1.75;;;1.00;;
6452;SDS011;3259;51.080;13.712;2022-08-11T18:43:50;9.45;;;0.93;;
6452;SDS011;3259;51.080;13.712;2022-08-11T18:46:57;2.35;;;0.80;;
6452;SDS011;3259;51.080;13.712;2022-08-11T18:50:10;4.40;;;1.38;;
6452;SDS011;3259;51.080;13.712;2022-08-11T18:53:25;1.83;;;1.40;;
6452;SDS011;3259;51.080;13.712;2022-08-11T18:56:32;0.82;;;0.80;;
6452;SDS011;3259;51.080;13.712;2022-08-11T18:59:40;2.25;;;1.02;;
6452;SDS011;3259;51.080;13.712;2022-08-11T19:02:49;1.10;;;0.98;;
6452;SDS011;3259;51.080;13.712;2022-08-11T19:05:56;5.82;;;0.90;;
6452;SDS011;3259;51.080;13.712;2022-08-11T19:09:23;1.58;;;1.27;;
6452;SDS011;3259;51.080;13.712;2022-08-11T19:12:34;1.17;;;1.05;;